Suez Rajan — V7WJ9 — position and weather

sailwx.info

Track history (hours):
 
Tides and Currents Weather Stations Pressure Air Temp Water Temp Dewpoint Dewpoint Depression Visibility Wind Speed Wind Dir Waves Ship Positions

Suez Rajan

Last reported at 2018-Apr-15 14:28 UTC. Time now 2018-Apr-24 23:06 UTC.
Position N 01°15' E 104°03'.
Warning: this ship's position is 9 days out of date.

Length 274 m; draft 16.2 m.

Type: Tanker. MMSI: 538004319.

Date/timePositionNaut miles runAvg speedWind from/ knotsBaromVisibWave heightAir tempDewpointWater temp
2018-Apr-15 14:28N 01°15' E 104°03'6 9.1
2018-Apr-15 13:51N 01°15' E 103°57'1 0.4
2018-Apr-15 11:17N 01°16' E 103°57'0 0.2
2018-Apr-15 10:59N 01°16' E 103°57'0 0.0
2018-Apr-15 10:26N 01°16' E 103°57'0 0.1
2018-Apr-15 09:26N 01°16' E 103°57'0 0.1
2018-Apr-15 08:59N 01°16' E 103°57'0 0.1
2018-Apr-15 07:41N 01°16' E 103°57'0 0.0
2018-Apr-15 07:20N 01°16' E 103°57'0 0.1
2018-Apr-15 02:47N 01°16' E 103°56'0 0.0
2018-Apr-15 02:29N 01°16' E 103°56'0 0.0
2018-Apr-15 01:41N 01°16' E 103°56'0 0.0
2018-Apr-15 01:17N 01°16' E 103°56'0 0.0
2018-Apr-15 00:56N 01°16' E 103°56'0 0.0
2018-Apr-15 00:29N 01°16' E 103°56'0 0.0
2018-Apr-14 23:59N 01°16' E 103°56'0 0.0
2018-Apr-14 23:23N 01°16' E 103°56'0 0.0
2018-Apr-14 22:53N 01°16' E 103°56'0 0.0
2018-Apr-14 22:29N 01°16' E 103°56'0 0.4
2018-Apr-14 22:00N 01°16' E 103°57'2 3.1
2018-Apr-14 21:30N 01°15' E 103°56'3 5.3
2018-Apr-14 21:00N 01°13' E 103°54'4 8.8
2018-Apr-14 20:30N 01°11' E 103°50'4 8.7
2018-Apr-14 20:01N 01°09' E 103°47'4 8.6
2018-Apr-14 19:30N 01°06' E 103°44'4 8.6
2018-Apr-14 18:59N 01°04' E 103°40'5 9.5
2018-Apr-14 18:29N 01°05' E 103°35'510.6
2018-Apr-14 17:59N 01°08' E 103°31'510.9
2018-Apr-14 17:30N 01°11' E 103°26'610.9
2018-Apr-14 16:59N 01°14' E 103°22'710.9
2018-Apr-14 16:19N 01°19' E 103°16'  
2018-Apr-07 14:04N 11°35' E 073°15'113.2
2018-Apr-07 13:58N 11°36' E 073°14'23912.8
2018-Apr-06 19:15N 14°35' E 070°31'613.1
2018-Apr-06 18:48N 14°40' E 070°27'413.1
2018-Apr-06 18:29N 14°44' E 070°25'1613.2
2018-Apr-06 17:15N 14°57' E 070°15'313.5
2018-Apr-06 17:00N 14°60' E 070°13'4213.2
2018-Apr-06 13:48N 15°35' E 069°48'413.3
2018-Apr-06 13:29N 15°38' E 069°46'713.3
2018-Apr-06 13:00N 15°43' E 069°42'613.3
2018-Apr-06 12:30N 15°48' E 069°38'1713.1
2018-Apr-06 11:14N 16°02' E 069°28'313.0
2018-Apr-06 11:00N 16°04' E 069°26'713.1
2018-Apr-06 10:25N 16°11' E 069°21'713.1
2018-Apr-06 09:55N 16°16' E 069°17'613.2
2018-Apr-06 09:28N 16°21' E 069°13'713.2
2018-Apr-06 08:58N 16°26' E 069°10'1913.1
2018-Apr-06 07:30N 16°42' E 068°58'713.3
2018-Apr-06 06:58N 16°48' E 068°54'613.3
2018-Apr-06 06:30N 16°53' E 068°50'613.1
2018-Apr-06 06:00N 16°58' E 068°46'913.1
2018-Apr-06 05:21N 17°05' E 068°41'513.2
2018-Apr-06 04:57N 17°09' E 068°38'713.2
2018-Apr-06 04:24N 17°15' E 068°34'3313.3
2018-Apr-06 01:56N 17°42' E 068°14'6413.0
2018-Apr-05 21:03N 18°34' E 067°36'612.8
2018-Apr-05 20:36N 18°39' E 067°32'212.8
2018-Apr-05 20:27N 18°41' E 067°31'612.7
2018-Apr-05 20:00N 18°45' E 067°27'812.8
2018-Apr-05 19:25N 18°51' E 067°23'612.7
2018-Apr-05 18:57N 18°56' E 067°19'1412.5
2018-Apr-05 17:50N 19°08' E 067°11'712.6
2018-Apr-05 17:17N 19°13' E 067°06'512.4
2018-Apr-05 16:54N 19°17' E 067°04'512.4
2018-Apr-05 16:30N 19°21' E 067°00'1012.5
2018-Apr-05 15:44N 19°29' E 066°54'312.7
2018-Apr-05 15:30N 19°31' E 066°52'712.9
2018-Apr-05 14:55N 19°37' E 066°47'513.1
2018-Apr-05 14:30N 19°41' E 066°44'  
Track history (hours):
 
Tides and Currents Weather Stations Pressure Air Temp Water Temp Dewpoint Dewpoint Depression Visibility Wind Speed Wind Dir Waves Ship Positions

Suez Rajan

Last reported at 2018-Apr-15 14:28 UTC. Time now 2018-Apr-24 23:06 UTC.
Position N 01°15' E 104°03'.
Warning: this ship's position is 9 days out of date.

Length 274 m; draft 16.2 m.

Type: Tanker. MMSI: 538004319.

Date/timePositionNaut miles runAvg speedWind from/ knotsBaromVisibWave heightAir tempDewpointWater temp
2018-Apr-15 14:28N 01°15' E 104°03'6 9.1
2018-Apr-15 13:51N 01°15' E 103°57'1 0.4
2018-Apr-15 11:17N 01°16' E 103°57'0 0.2
2018-Apr-15 10:59N 01°16' E 103°57'0 0.0
2018-Apr-15 10:26N 01°16' E 103°57'0 0.1
2018-Apr-15 09:26N 01°16' E 103°57'0 0.1
2018-Apr-15 08:59N 01°16' E 103°57'0 0.1
2018-Apr-15 07:41N 01°16' E 103°57'0 0.0
2018-Apr-15 07:20N 01°16' E 103°57'0 0.1
2018-Apr-15 02:47N 01°16' E 103°56'0 0.0
2018-Apr-15 02:29N 01°16' E 103°56'0 0.0
2018-Apr-15 01:41N 01°16' E 103°56'0 0.0
2018-Apr-15 01:17N 01°16' E 103°56'0 0.0
2018-Apr-15 00:56N 01°16' E 103°56'0 0.0
2018-Apr-15 00:29N 01°16' E 103°56'0 0.0
2018-Apr-14 23:59N 01°16' E 103°56'0 0.0
2018-Apr-14 23:23N 01°16' E 103°56'0 0.0
2018-Apr-14 22:53N 01°16' E 103°56'0 0.0
2018-Apr-14 22:29N 01°16' E 103°56'0 0.4
2018-Apr-14 22:00N 01°16' E 103°57'2 3.1
2018-Apr-14 21:30N 01°15' E 103°56'3 5.3
2018-Apr-14 21:00N 01°13' E 103°54'4 8.8
2018-Apr-14 20:30N 01°11' E 103°50'4 8.7
2018-Apr-14 20:01N 01°09' E 103°47'4 8.6
2018-Apr-14 19:30N 01°06' E 103°44'4 8.6
2018-Apr-14 18:59N 01°04' E 103°40'5 9.5
2018-Apr-14 18:29N 01°05' E 103°35'510.6
2018-Apr-14 17:59N 01°08' E 103°31'510.9
2018-Apr-14 17:30N 01°11' E 103°26'610.9
2018-Apr-14 16:59N 01°14' E 103°22'710.9
2018-Apr-14 16:19N 01°19' E 103°16'  
2018-Apr-07 14:04N 11°35' E 073°15'113.2
2018-Apr-07 13:58N 11°36' E 073°14'23912.8
2018-Apr-06 19:15N 14°35' E 070°31'613.1
2018-Apr-06 18:48N 14°40' E 070°27'413.1
2018-Apr-06 18:29N 14°44' E 070°25'1613.2
2018-Apr-06 17:15N 14°57' E 070°15'313.5
2018-Apr-06 17:00N 14°60' E 070°13'4213.2
2018-Apr-06 13:48N 15°35' E 069°48'413.3
2018-Apr-06 13:29N 15°38' E 069°46'713.3
2018-Apr-06 13:00N 15°43' E 069°42'613.3
2018-Apr-06 12:30N 15°48' E 069°38'1713.1
2018-Apr-06 11:14N 16°02' E 069°28'313.0
2018-Apr-06 11:00N 16°04' E 069°26'713.1
2018-Apr-06 10:25N 16°11' E 069°21'713.1
2018-Apr-06 09:55N 16°16' E 069°17'613.2
2018-Apr-06 09:28N 16°21' E 069°13'713.2
2018-Apr-06 08:58N 16°26' E 069°10'1913.1
2018-Apr-06 07:30N 16°42' E 068°58'713.3
2018-Apr-06 06:58N 16°48' E 068°54'613.3
2018-Apr-06 06:30N 16°53' E 068°50'613.1
2018-Apr-06 06:00N 16°58' E 068°46'913.1
2018-Apr-06 05:21N 17°05' E 068°41'513.2
2018-Apr-06 04:57N 17°09' E 068°38'713.2
2018-Apr-06 04:24N 17°15' E 068°34'3313.3
2018-Apr-06 01:56N 17°42' E 068°14'6413.0
2018-Apr-05 21:03N 18°34' E 067°36'612.8
2018-Apr-05 20:36N 18°39' E 067°32'212.8
2018-Apr-05 20:27N 18°41' E 067°31'612.7
2018-Apr-05 20:00N 18°45' E 067°27'812.8
2018-Apr-05 19:25N 18°51' E 067°23'612.7
2018-Apr-05 18:57N 18°56' E 067°19'1412.5
2018-Apr-05 17:50N 19°08' E 067°11'712.6
2018-Apr-05 17:17N 19°13' E 067°06'512.4
2018-Apr-05 16:54N 19°17' E 067°04'512.4
2018-Apr-05 16:30N 19°21' E 067°00'1012.5
2018-Apr-05 15:44N 19°29' E 066°54'312.7
2018-Apr-05 15:30N 19°31' E 066°52'712.9
2018-Apr-05 14:55N 19°37' E 066°47'513.1
2018-Apr-05 14:30N 19°41' E 066°44'  

Dump ship's entire track history